ETD744 LEPA-EGKK
Flight info
| Callsign | ETD744 |
|---|---|
| Flight time | 1h 50m |
| Altitude | 32000 |
| Route | DRAGO DCT PAPOS DCT UMURE DCT XIKEN DCT KARES DCT ARBEK DCT REBUL DCT USKAR DCT MOPAS DCT GIROM DCT GONUP DCT MANAK DCT TIRAV DCT DIXAD DCT NTS DCT BAKUL DCT REN DCT UPALO DCT REVTU DCT ODREP UP88 VASUX |
| Aircraft | B77L/H-SDE1E2E3FGHIJ2J3J4J5M1RWXY/LB1D1 |
Departure
| Time | 2026-05-04 17:47 |
|---|---|
| Airport | Palma de Mallorca Airport (LEPA) |
Arrival
| Time | 2026-05-04 19:38 |
|---|---|
| Airport | London Gatwick Airport (EGKK) |
| Time | Latitude | Longitude | Altitude | Speed | Heading |
|---|---|---|---|---|---|
| 2026-05-04 17:23 | 39.55267 | 2.73475 | 34 ft | 0 kts | 238° |
| 2026-05-04 17:35 | 39.55268 | 2.73477 | 34 ft | 2 kts | 238° |
| 2026-05-04 17:35 | 39.55291 | 2.73530 | 32 ft | 4 kts | 268° |
| 2026-05-04 17:35 | 39.55283 | 2.73556 | 32 ft | 4 kts | 327° |
| 2026-05-04 17:36 | 39.55265 | 2.73570 | 34 ft | 1 kts | 329° |
| 2026-05-04 17:36 | 39.55261 | 2.73572 | 33 ft | 0 kts | 329° |
| 2026-05-04 17:40 | 39.55262 | 2.73571 | 34 ft | 1 kts | 329° |
| 2026-05-04 17:40 | 39.55277 | 2.73560 | 34 ft | 4 kts | 329° |
| 2026-05-04 17:41 | 39.55312 | 2.73533 | 34 ft | 7 kts | 329° |
| 2026-05-04 17:41 | 39.55365 | 2.73491 | 34 ft | 10 kts | 328° |
| 2026-05-04 17:41 | 39.55433 | 2.73450 | 34 ft | 11 kts | 0° |
| 2026-05-04 17:41 | 39.55481 | 2.73521 | 34 ft | 11 kts | 60° |
| 2026-05-04 17:42 | 39.55534 | 2.73568 | 34 ft | 10 kts | 346° |
| 2026-05-04 17:42 | 39.55595 | 2.73524 | 34 ft | 10 kts | 329° |
| 2026-05-04 17:42 | 39.55658 | 2.73514 | 34 ft | 10 kts | 36° |
| 2026-05-04 17:42 | 39.55698 | 2.73589 | 34 ft | 10 kts | 58° |
| 2026-05-04 17:43 | 39.55734 | 2.73666 | 34 ft | 10 kts | 58° |
| 2026-05-04 17:43 | 39.55770 | 2.73743 | 34 ft | 10 kts | 58° |
| 2026-05-04 17:43 | 39.55806 | 2.73820 | 34 ft | 10 kts | 58° |
| 2026-05-04 17:43 | 39.55842 | 2.73896 | 34 ft | 10 kts | 58° |
| 2026-05-04 17:44 | 39.55879 | 2.73973 | 34 ft | 10 kts | 58° |
| 2026-05-04 17:44 | 39.55915 | 2.74050 | 33 ft | 10 kts | 59° |
| 2026-05-04 17:44 | 39.55951 | 2.74127 | 34 ft | 10 kts | 59° |
| 2026-05-04 17:44 | 39.55988 | 2.74204 | 34 ft | 10 kts | 59° |
| 2026-05-04 17:45 | 39.56024 | 2.74282 | 34 ft | 10 kts | 59° |
| 2026-05-04 17:45 | 39.56060 | 2.74359 | 34 ft | 10 kts | 58° |
| 2026-05-04 17:45 | 39.56108 | 2.74440 | 34 ft | 13 kts | 37° |
| 2026-05-04 17:45 | 39.56198 | 2.74427 | 34 ft | 15 kts | 330° |
| 2026-05-04 17:46 | 39.56249 | 2.74315 | 34 ft | 16 kts | 255° |
| 2026-05-04 17:46 | 39.56222 | 2.74248 | 33 ft | 0 kts | 239° |
| 2026-05-04 17:46 | 39.56210 | 2.74224 | 34 ft | 12 kts | 239° |
| 2026-05-04 17:46 | 39.56071 | 2.73928 | 34 ft | 72 kts | 238° |
| 2026-05-04 17:47 | 39.55695 | 2.73133 | 34 ft | 132 kts | 238° |
| 2026-05-04 17:47 | 39.55139 | 2.71956 | 210 ft | 159 kts | 238° |
| 2026-05-04 17:47 | 39.54579 | 2.70766 | 844 ft | 153 kts | 236° |
| 2026-05-04 17:47 | 39.53991 | 2.69600 | 1391 ft | 155 kts | 235° |
| 2026-05-04 17:48 | 39.53376 | 2.68399 | 1828 ft | 167 kts | 236° |
| 2026-05-04 17:48 | 39.52698 | 2.67072 | 2074 ft | 187 kts | 236° |
| 2026-05-04 17:48 | 39.51965 | 2.65634 | 2522 ft | 196 kts | 235° |
| 2026-05-04 17:48 | 39.51210 | 2.64150 | 3138 ft | 199 kts | 236° |
| 2026-05-04 17:49 | 39.50444 | 2.62644 | 3731 ft | 202 kts | 236° |
| 2026-05-04 17:49 | 39.49678 | 2.61132 | 4430 ft | 200 kts | 237° |
| 2026-05-04 17:49 | 39.48907 | 2.59610 | 4989 ft | 204 kts | 237° |
| 2026-05-04 17:49 | 39.48125 | 2.58073 | 5603 ft | 202 kts | 237° |
| 2026-05-04 17:50 | 39.47361 | 2.56576 | 6210 ft | 204 kts | 236° |
| 2026-05-04 17:50 | 39.46543 | 2.54972 | 6484 ft | 218 kts | 237° |
| 2026-05-04 17:50 | 39.45731 | 2.53381 | 7258 ft | 210 kts | 237° |
| 2026-05-04 17:50 | 39.45079 | 2.51707 | 7767 ft | 211 kts | 259° |
| 2026-05-04 17:51 | 39.45232 | 2.49775 | 8092 ft | 232 kts | 288° |
| 2026-05-04 17:51 | 39.46159 | 2.47923 | 8265 ft | 261 kts | 310° |
| 2026-05-04 17:51 | 39.47613 | 2.46395 | 8528 ft | 276 kts | 319° |
| 2026-05-04 17:51 | 39.49220 | 2.44954 | 8933 ft | 284 kts | 320° |
| 2026-05-04 17:52 | 39.50851 | 2.43477 | 9419 ft | 287 kts | 319° |
| 2026-05-04 17:52 | 39.52471 | 2.41964 | 9950 ft | 288 kts | 318° |
| 2026-05-04 17:52 | 39.54105 | 2.40408 | 10284 ft | 297 kts | 318° |
| 2026-05-04 17:52 | 39.55769 | 2.38702 | 10423 ft | 312 kts | 312° |
| 2026-05-04 17:53 | 39.57338 | 2.36674 | 10538 ft | 326 kts | 308° |
| 2026-05-04 17:53 | 39.58892 | 2.34476 | 10691 ft | 346 kts | 308° |
| 2026-05-04 17:53 | 39.60550 | 2.32098 | 11082 ft | 363 kts | 308° |
| 2026-05-04 17:53 | 39.62278 | 2.29651 | 11747 ft | 371 kts | 308° |
| 2026-05-04 17:54 | 39.64048 | 2.27185 | 12605 ft | 375 kts | 309° |
| 2026-05-04 17:54 | 39.65851 | 2.24703 | 13536 ft | 379 kts | 309° |
| 2026-05-04 17:54 | 39.67675 | 2.22209 | 14346 ft | 383 kts | 309° |
| 2026-05-04 17:54 | 39.69520 | 2.19691 | 15160 ft | 386 kts | 309° |
| 2026-05-04 17:55 | 39.71381 | 2.17152 | 15970 ft | 390 kts | 309° |
| 2026-05-04 17:55 | 39.73260 | 2.14585 | 16754 ft | 394 kts | 309° |
| 2026-05-04 17:55 | 39.75154 | 2.11991 | 17509 ft | 398 kts | 308° |
| 2026-05-04 17:55 | 39.77043 | 2.09401 | 18266 ft | 401 kts | 308° |
| 2026-05-04 17:56 | 39.78969 | 2.06757 | 18936 ft | 405 kts | 308° |
| 2026-05-04 17:56 | 39.80917 | 2.04079 | 19573 ft | 409 kts | 308° |
| 2026-05-04 17:56 | 39.82879 | 2.01380 | 20216 ft | 413 kts | 307° |
| 2026-05-04 17:56 | 39.84863 | 1.98648 | 20834 ft | 417 kts | 307° |
| 2026-05-04 17:57 | 39.86848 | 1.95915 | 21274 ft | 415 kts | 307° |
| 2026-05-04 17:57 | 39.88840 | 1.93166 | 21384 ft | 420 kts | 307° |
| 2026-05-04 17:57 | 39.90853 | 1.90380 | 21521 ft | 423 kts | 307° |
| 2026-05-04 17:57 | 39.92875 | 1.87583 | 21717 ft | 425 kts | 307° |
| 2026-05-04 17:58 | 39.94905 | 1.84775 | 21963 ft | 426 kts | 307° |
| 2026-05-04 17:58 | 39.96934 | 1.81967 | 22197 ft | 426 kts | 307° |
| 2026-05-04 17:58 | 39.98968 | 1.79148 | 22409 ft | 427 kts | 307° |
| 2026-05-04 17:58 | 40.01105 | 1.76373 | 22850 ft | 435 kts | 311° |
| 2026-05-04 17:59 | 40.03399 | 1.73871 | 23257 ft | 437 kts | 316° |
| 2026-05-04 17:59 | 40.06022 | 1.71762 | 23335 ft | 458 kts | 332° |
| 2026-05-04 17:59 | 40.12458 | 1.70260 | 23829 ft | 474 kts | 347° |
| 2026-05-04 18:00 | 40.15708 | 1.69589 | 23892 ft | 470 kts | 339° |
| 2026-05-04 18:00 | 40.18737 | 1.68085 | 23922 ft | 463 kts | 326° |
| 2026-05-04 18:00 | 40.21511 | 1.66065 | 23909 ft | 451 kts | 322° |
| 2026-05-04 18:00 | 40.24224 | 1.64006 | 23918 ft | 452 kts | 324° |
| 2026-05-04 18:01 | 40.27077 | 1.62189 | 23915 ft | 461 kts | 330° |
| 2026-05-04 18:01 | 40.30113 | 1.60739 | 23923 ft | 467 kts | 335° |
| 2026-05-04 18:01 | 40.33198 | 1.59467 | 24200 ft | 473 kts | 336° |
| 2026-05-04 18:02 | 40.39433 | 1.56756 | 25423 ft | 472 kts | 333° |
| 2026-05-04 18:02 | 40.42514 | 1.55240 | 25903 ft | 474 kts | 332° |
| 2026-05-04 18:02 | 40.45594 | 1.53630 | 26343 ft | 478 kts | 331° |
| 2026-05-04 18:02 | 40.48678 | 1.51969 | 26816 ft | 481 kts | 331° |
| 2026-05-04 18:03 | 40.51788 | 1.50293 | 27310 ft | 484 kts | 331° |
| 2026-05-04 18:03 | 40.54925 | 1.48626 | 27789 ft | 487 kts | 332° |
| 2026-05-04 18:03 | 40.58089 | 1.46973 | 28251 ft | 491 kts | 332° |
| 2026-05-04 18:03 | 40.61284 | 1.45315 | 28677 ft | 494 kts | 332° |
| 2026-05-04 18:04 | 40.64451 | 1.43672 | 29089 ft | 497 kts | 332° |
| 2026-05-04 18:04 | 40.67681 | 1.41991 | 29501 ft | 500 kts | 332° |
| 2026-05-04 18:04 | 40.74134 | 1.38624 | 30557 ft | 497 kts | 332° |
| 2026-05-04 18:05 | 40.77352 | 1.36942 | 30978 ft | 497 kts | 332° |
| 2026-05-04 18:05 | 40.80571 | 1.35254 | 31347 ft | 498 kts | 332° |
| 2026-05-04 18:05 | 40.83794 | 1.33563 | 31768 ft | 498 kts | 332° |
| 2026-05-04 18:05 | 40.87009 | 1.31875 | 32227 ft | 496 kts | 332° |
| 2026-05-04 18:06 | 40.93411 | 1.28510 | 33095 ft | 495 kts | 332° |
| 2026-05-04 18:06 | 40.96610 | 1.26825 | 33515 ft | 494 kts | 332° |
| 2026-05-04 18:06 | 40.99802 | 1.25142 | 33921 ft | 493 kts | 332° |
| 2026-05-04 18:07 | 41.06166 | 1.21777 | 33947 ft | 495 kts | 332° |
| 2026-05-04 18:07 | 41.12564 | 1.18445 | 33940 ft | 493 kts | 333° |
| 2026-05-04 18:08 | 41.19095 | 1.15907 | 33938 ft | 492 kts | 345° |
| 2026-05-04 18:08 | 41.22576 | 1.15704 | 33948 ft | 509 kts | 358° |
| 2026-05-04 18:08 | 41.26102 | 1.16116 | 33937 ft | 508 kts | 1° |
| 2026-05-04 18:09 | 41.33030 | 1.16031 | 33951 ft | 493 kts | 341° |
| 2026-05-04 18:09 | 41.39637 | 1.13868 | 33921 ft | 490 kts | 344° |
| 2026-05-04 18:10 | 41.43091 | 1.13617 | 33955 ft | 505 kts | 358° |
| 2026-05-04 18:10 | 41.46599 | 1.13982 | 33911 ft | 505 kts | 360° |
| 2026-05-04 18:10 | 41.53454 | 1.13666 | 33956 ft | 486 kts | 337° |
| 2026-05-04 18:11 | 41.59814 | 1.10978 | 33912 ft | 482 kts | 340° |
| 2026-05-04 18:11 | 41.63210 | 1.10617 | 33933 ft | 503 kts | 1° |
| 2026-05-04 18:11 | 41.66671 | 1.11529 | 33928 ft | 509 kts | 9° |
| 2026-05-04 18:12 | 41.73555 | 1.13116 | 33930 ft | 494 kts | 348° |
| 2026-05-04 18:12 | 41.76875 | 1.12163 | 33959 ft | 486 kts | 336° |
| 2026-05-04 18:12 | 41.80065 | 1.10715 | 33949 ft | 482 kts | 335° |
| 2026-05-04 18:13 | 41.86647 | 1.08560 | 33962 ft | 491 kts | 344° |
| 2026-05-04 18:13 | 41.93154 | 1.06377 | 33955 ft | 477 kts | 326° |
| 2026-05-04 18:14 | 41.95933 | 1.04032 | 33963 ft | 469 kts | 317° |
| 2026-05-04 18:14 | 41.98584 | 1.01482 | 33774 ft | 469 kts | 319° |
| 2026-05-04 18:14 | 42.01459 | 0.99299 | 33131 ft | 486 kts | 333° |
| 2026-05-04 18:15 | 42.08251 | 0.97316 | 32081 ft | 508 kts | 348° |
| 2026-05-04 18:15 | 42.15341 | 0.96498 | 31945 ft | 515 kts | 356° |
| 2026-05-04 18:16 | 42.22424 | 0.97917 | 31953 ft | 524 kts | 17° |
| 2026-05-04 18:16 | 42.29254 | 1.01023 | 31918 ft | 517 kts | 9° |
| 2026-05-04 18:17 | 42.36376 | 1.00886 | 31942 ft | 510 kts | 350° |
| 2026-05-04 18:17 | 42.39917 | 1.00446 | 31940 ft | 509 kts | 354° |
| 2026-05-04 18:17 | 42.46935 | 1.02185 | 31933 ft | 518 kts | 16° |
| 2026-05-04 18:18 | 42.50380 | 1.03611 | 31948 ft | 515 kts | 14° |
| 2026-05-04 18:18 | 42.53894 | 1.04472 | 31946 ft | 513 kts | 359° |
| 2026-05-04 18:18 | 42.57420 | 1.04295 | 31967 ft | 516 kts | 352° |
| 2026-05-04 18:19 | 42.68047 | 1.02182 | 31961 ft | 520 kts | 345° |
| 2026-05-04 18:19 | 42.75133 | 1.00260 | 31966 ft | 514 kts | 346° |
| 2026-05-04 18:20 | 42.82175 | 0.98285 | 31983 ft | 521 kts | 343° |
| 2026-05-04 18:20 | 42.89145 | 0.95879 | 31993 ft | 516 kts | 341° |
| 2026-05-04 18:21 | 42.96047 | 0.93358 | 32004 ft | 514 kts | 342° |
| 2026-05-04 18:21 | 43.02990 | 0.90890 | 31983 ft | 516 kts | 342° |
| 2026-05-04 18:22 | 43.09966 | 0.88482 | 31990 ft | 517 kts | 343° |
| 2026-05-04 18:22 | 43.16946 | 0.86080 | 31993 ft | 517 kts | 343° |
| 2026-05-04 18:23 | 43.23875 | 0.83677 | 31987 ft | 517 kts | 343° |
| 2026-05-04 18:23 | 43.30857 | 0.81239 | 31986 ft | 517 kts | 343° |
| 2026-05-04 18:24 | 43.36655 | 0.79210 | 31981 ft | 517 kts | 343° |
| 2026-05-04 18:24 | 43.43626 | 0.76768 | 31982 ft | 516 kts | 342° |
| 2026-05-04 18:25 | 43.50499 | 0.73993 | 31973 ft | 511 kts | 338° |
| 2026-05-04 18:25 | 43.58085 | 0.69910 | 31967 ft | 499 kts | 333° |
| 2026-05-04 18:26 | 43.63329 | 0.66516 | 31966 ft | 495 kts | 330° |
| 2026-05-04 18:26 | 43.69502 | 0.62297 | 31988 ft | 500 kts | 330° |
| 2026-05-04 18:27 | 43.75880 | 0.58217 | 31984 ft | 515 kts | 333° |
| 2026-05-04 18:27 | 43.82488 | 0.54280 | 31972 ft | 517 kts | 334° |
| 2026-05-04 18:28 | 43.89127 | 0.50414 | 31972 ft | 517 kts | 334° |
| 2026-05-04 18:28 | 43.95737 | 0.46524 | 31974 ft | 515 kts | 334° |
| 2026-05-04 18:29 | 44.02316 | 0.42595 | 31955 ft | 515 kts | 333° |
| 2026-05-04 18:29 | 44.08884 | 0.38645 | 31968 ft | 514 kts | 333° |
| 2026-05-04 18:30 | 44.18698 | 0.32731 | 31961 ft | 514 kts | 333° |
| 2026-05-04 18:31 | 44.25270 | 0.28765 | 31962 ft | 515 kts | 333° |
| 2026-05-04 18:31 | 44.31843 | 0.24791 | 31959 ft | 515 kts | 333° |
| 2026-05-04 18:32 | 44.38428 | 0.20800 | 31956 ft | 516 kts | 333° |
| 2026-05-04 18:32 | 44.44977 | 0.16819 | 31951 ft | 516 kts | 333° |
| 2026-05-04 18:33 | 44.51566 | 0.12804 | 31954 ft | 517 kts | 333° |
| 2026-05-04 18:33 | 44.58161 | 0.08775 | 31957 ft | 517 kts | 333° |
| 2026-05-04 18:34 | 44.64765 | 0.04733 | 31948 ft | 518 kts | 333° |
| 2026-05-04 18:34 | 44.71369 | 0.00679 | 31949 ft | 518 kts | 333° |
| 2026-05-04 18:35 | 44.77935 | -0.03362 | 31950 ft | 518 kts | 333° |
| 2026-05-04 18:35 | 44.84543 | -0.07439 | 31947 ft | 518 kts | 333° |
| 2026-05-04 18:36 | 44.91141 | -0.11521 | 31952 ft | 518 kts | 333° |
| 2026-05-04 18:36 | 44.97738 | -0.15612 | 31947 ft | 518 kts | 333° |
| 2026-05-04 18:37 | 45.04337 | -0.19713 | 31951 ft | 518 kts | 333° |
| 2026-05-04 18:37 | 45.10935 | -0.23826 | 31953 ft | 518 kts | 333° |
| 2026-05-04 18:38 | 45.17487 | -0.27920 | 31959 ft | 518 kts | 333° |
| 2026-05-04 18:38 | 45.24080 | -0.32049 | 31957 ft | 518 kts | 333° |
| 2026-05-04 18:39 | 45.30672 | -0.36188 | 31957 ft | 518 kts | 333° |
| 2026-05-04 18:39 | 45.37256 | -0.40333 | 31944 ft | 517 kts | 333° |
| 2026-05-04 18:40 | 45.43790 | -0.44456 | 31940 ft | 517 kts | 333° |
| 2026-05-04 18:40 | 45.50360 | -0.48614 | 31951 ft | 516 kts | 333° |
| 2026-05-04 18:41 | 45.56924 | -0.52779 | 31946 ft | 516 kts | 333° |
| 2026-05-04 18:41 | 45.63480 | -0.56950 | 31947 ft | 516 kts | 333° |
| 2026-05-04 18:42 | 45.70041 | -0.61134 | 31950 ft | 516 kts | 333° |
| 2026-05-04 18:42 | 45.76606 | -0.65331 | 31945 ft | 516 kts | 333° |
| 2026-05-04 18:43 | 45.83118 | -0.69504 | 31947 ft | 516 kts | 333° |
| 2026-05-04 18:43 | 45.89673 | -0.73717 | 31950 ft | 516 kts | 333° |
| 2026-05-04 18:44 | 45.96233 | -0.77943 | 31950 ft | 516 kts | 333° |
| 2026-05-04 18:44 | 46.02750 | -0.82154 | 31950 ft | 516 kts | 334° |
| 2026-05-04 18:45 | 46.09304 | -0.86399 | 31959 ft | 517 kts | 334° |
| 2026-05-04 18:45 | 46.15864 | -0.90659 | 31959 ft | 517 kts | 334° |
| 2026-05-04 18:46 | 46.22250 | -0.95164 | 31956 ft | 504 kts | 327° |
| 2026-05-04 18:46 | 46.27711 | -1.01412 | 31974 ft | 503 kts | 310° |
| 2026-05-04 18:47 | 46.32555 | -1.08542 | 31952 ft | 500 kts | 315° |
| 2026-05-04 18:47 | 46.38178 | -1.14543 | 31972 ft | 509 kts | 323° |
| 2026-05-04 18:48 | 46.44063 | -1.20452 | 31977 ft | 518 kts | 320° |
| 2026-05-04 18:48 | 46.49613 | -1.26850 | 31952 ft | 503 kts | 317° |
| 2026-05-04 18:49 | 46.55064 | -1.33461 | 31978 ft | 516 kts | 317° |
| 2026-05-04 18:49 | 46.60719 | -1.39846 | 31961 ft | 516 kts | 322° |
| 2026-05-04 18:50 | 46.66807 | -1.45110 | 31960 ft | 507 kts | 334° |
| 2026-05-04 18:50 | 46.73446 | -1.48839 | 31983 ft | 519 kts | 338° |
| 2026-05-04 18:51 | 46.80146 | -1.52858 | 31958 ft | 516 kts | 333° |
| 2026-05-04 18:51 | 46.86656 | -1.57177 | 31974 ft | 521 kts | 335° |
| 2026-05-04 18:52 | 46.93490 | -1.60477 | 31922 ft | 515 kts | 354° |
| 2026-05-04 18:52 | 46.97059 | -1.60405 | 31956 ft | 512 kts | 8° |
| 2026-05-04 18:52 | 47.00582 | -1.59722 | 31937 ft | 509 kts | 9° |
| 2026-05-04 18:53 | 47.07613 | -1.60010 | 31968 ft | 514 kts | 344° |
| 2026-05-04 18:53 | 47.14437 | -1.62987 | 31936 ft | 509 kts | 346° |
| 2026-05-04 18:53 | 47.17916 | -1.63583 | 31929 ft | 514 kts | 4° |
| 2026-05-04 18:54 | 47.21443 | -1.62801 | 31954 ft | 511 kts | 14° |
| 2026-05-04 18:54 | 47.28402 | -1.60878 | 31917 ft | 511 kts | 0° |
| 2026-05-04 18:54 | 47.31922 | -1.61655 | 31958 ft | 516 kts | 341° |
| 2026-05-04 18:55 | 47.35283 | -1.63429 | 31938 ft | 512 kts | 338° |
| 2026-05-04 18:55 | 47.42114 | -1.66181 | 31944 ft | 515 kts | 359° |
| 2026-05-04 18:55 | 47.45701 | -1.66015 | 31941 ft | 516 kts | 5° |
| 2026-05-04 18:56 | 47.52835 | -1.65450 | 31929 ft | 511 kts | 359° |
| 2026-05-04 18:56 | 47.59907 | -1.66162 | 31935 ft | 507 kts | 354° |
| 2026-05-04 18:57 | 47.66866 | -1.67313 | 31936 ft | 505 kts | 353° |
| 2026-05-04 18:57 | 47.73819 | -1.68527 | 31941 ft | 502 kts | 353° |
| 2026-05-04 18:58 | 47.80746 | -1.69720 | 31952 ft | 499 kts | 353° |
| 2026-05-04 18:58 | 47.87637 | -1.70894 | 31958 ft | 498 kts | 353° |
| 2026-05-04 18:59 | 47.94501 | -1.72066 | 31964 ft | 496 kts | 353° |
| 2026-05-04 18:59 | 48.01345 | -1.73242 | 31962 ft | 494 kts | 353° |
| 2026-05-04 19:00 | 48.08208 | -1.74370 | 31982 ft | 502 kts | 355° |
| 2026-05-04 19:00 | 48.15259 | -1.74960 | 31986 ft | 518 kts | 359° |
| 2026-05-04 19:01 | 48.22526 | -1.75017 | 31969 ft | 522 kts | 1° |
| 2026-05-04 19:01 | 48.29782 | -1.74728 | 31957 ft | 521 kts | 2° |
| 2026-05-04 19:02 | 48.37031 | -1.74519 | 31966 ft | 520 kts | 1° |
| 2026-05-04 19:02 | 48.44220 | -1.74550 | 31970 ft | 519 kts | 0° |
| 2026-05-04 19:03 | 48.51449 | -1.74693 | 31965 ft | 518 kts | 360° |
| 2026-05-04 19:03 | 48.58659 | -1.74819 | 31968 ft | 518 kts | 0° |
| 2026-05-04 19:04 | 48.65870 | -1.74908 | 31968 ft | 518 kts | 0° |
| 2026-05-04 19:04 | 48.73035 | -1.74984 | 31973 ft | 518 kts | 0° |
| 2026-05-04 19:05 | 48.80254 | -1.75067 | 31975 ft | 519 kts | 0° |
| 2026-05-04 19:05 | 48.87473 | -1.75157 | 31977 ft | 519 kts | 0° |
| 2026-05-04 19:06 | 48.94695 | -1.75193 | 31978 ft | 518 kts | 1° |
| 2026-05-04 19:06 | 49.01908 | -1.74929 | 31981 ft | 518 kts | 2° |
| 2026-05-04 19:07 | 49.09113 | -1.74553 | 31980 ft | 517 kts | 2° |
| 2026-05-04 19:07 | 49.16266 | -1.74230 | 31987 ft | 517 kts | 2° |
| 2026-05-04 19:08 | 49.23444 | -1.73963 | 31984 ft | 516 kts | 1° |
| 2026-05-04 19:08 | 49.30619 | -1.73708 | 31986 ft | 515 kts | 1° |
| 2026-05-04 19:09 | 49.37777 | -1.73441 | 31989 ft | 514 kts | 2° |
| 2026-05-04 19:09 | 49.44917 | -1.73166 | 31988 ft | 513 kts | 2° |
| 2026-05-04 19:10 | 49.52045 | -1.72893 | 31992 ft | 511 kts | 1° |
| 2026-05-04 19:10 | 49.59019 | -1.72385 | 31982 ft | 499 kts | 6° |
| 2026-05-04 19:11 | 49.65735 | -1.69989 | 32004 ft | 500 kts | 26° |
| 2026-05-04 19:11 | 49.71937 | -1.65165 | 31988 ft | 496 kts | 28° |
| 2026-05-04 19:12 | 49.75102 | -1.63000 | 31594 ft | 501 kts | 22° |
| 2026-05-04 19:12 | 49.81786 | -1.59913 | 30568 ft | 500 kts | 17° |
| 2026-05-04 19:12 | 49.85124 | -1.58454 | 30271 ft | 495 kts | 19° |
| 2026-05-04 19:13 | 49.88352 | -1.56865 | 30042 ft | 492 kts | 21° |
| 2026-05-04 19:13 | 49.91566 | -1.55101 | 29533 ft | 487 kts | 22° |
| 2026-05-04 19:13 | 49.94747 | -1.53238 | 28771 ft | 487 kts | 23° |
| 2026-05-04 19:13 | 49.97902 | -1.51384 | 28198 ft | 482 kts | 22° |
| 2026-05-04 19:14 | 50.01029 | -1.49598 | 27677 ft | 476 kts | 21° |
| 2026-05-04 19:14 | 50.04142 | -1.47913 | 27127 ft | 471 kts | 20° |
| 2026-05-04 19:14 | 50.07247 | -1.46331 | 26603 ft | 466 kts | 19° |
| 2026-05-04 19:14 | 50.10329 | -1.44846 | 26082 ft | 461 kts | 18° |
| 2026-05-04 19:15 | 50.13358 | -1.43471 | 25577 ft | 457 kts | 17° |
| 2026-05-04 19:15 | 50.16400 | -1.42111 | 25074 ft | 453 kts | 18° |
| 2026-05-04 19:15 | 50.19409 | -1.40719 | 24574 ft | 448 kts | 18° |
| 2026-05-04 19:15 | 50.22377 | -1.39281 | 24077 ft | 444 kts | 19° |
| 2026-05-04 19:16 | 50.25313 | -1.37823 | 23584 ft | 441 kts | 19° |
| 2026-05-04 19:16 | 50.28223 | -1.36373 | 23009 ft | 437 kts | 19° |
| 2026-05-04 19:16 | 50.31114 | -1.34946 | 22484 ft | 433 kts | 19° |
| 2026-05-04 19:16 | 50.33969 | -1.33545 | 21991 ft | 428 kts | 19° |
| 2026-05-04 19:17 | 50.36796 | -1.32160 | 21508 ft | 423 kts | 19° |
| 2026-05-04 19:17 | 50.39593 | -1.30788 | 21032 ft | 419 kts | 19° |
| 2026-05-04 19:17 | 50.42323 | -1.29445 | 20572 ft | 415 kts | 19° |
| 2026-05-04 19:17 | 50.45063 | -1.28094 | 20100 ft | 411 kts | 19° |
| 2026-05-04 19:18 | 50.47777 | -1.26752 | 19632 ft | 407 kts | 19° |
| 2026-05-04 19:18 | 50.50427 | -1.25344 | 19161 ft | 394 kts | 24° |
| 2026-05-04 19:18 | 50.52756 | -1.23275 | 18698 ft | 381 kts | 43° |
| 2026-05-04 19:18 | 50.54558 | -1.20360 | 18291 ft | 365 kts | 50° |
| 2026-05-04 19:19 | 50.56221 | -1.17435 | 17815 ft | 354 kts | 47° |
| 2026-05-04 19:19 | 50.58014 | -1.14852 | 17402 ft | 346 kts | 40° |
| 2026-05-04 19:19 | 50.59965 | -1.12499 | 16929 ft | 365 kts | 38° |
| 2026-05-04 19:19 | 50.62019 | -1.10009 | 16705 ft | 378 kts | 39° |
| 2026-05-04 19:20 | 50.64064 | -1.07394 | 16453 ft | 379 kts | 40° |
| 2026-05-04 19:20 | 50.66068 | -1.04714 | 16190 ft | 375 kts | 43° |
| 2026-05-04 19:20 | 50.67928 | -1.01864 | 15834 ft | 372 kts | 47° |
| 2026-05-04 19:20 | 50.69628 | -0.98779 | 15400 ft | 372 kts | 52° |
| 2026-05-04 19:21 | 50.71149 | -0.95595 | 14955 ft | 363 kts | 54° |
| 2026-05-04 19:21 | 50.72600 | -0.92392 | 14534 ft | 357 kts | 54° |
| 2026-05-04 19:21 | 50.74066 | -0.89252 | 14120 ft | 354 kts | 53° |
| 2026-05-04 19:21 | 50.75569 | -0.86198 | 13681 ft | 351 kts | 51° |
| 2026-05-04 19:22 | 50.77099 | -0.83211 | 13221 ft | 348 kts | 51° |
| 2026-05-04 19:22 | 50.78626 | -0.80274 | 12793 ft | 345 kts | 51° |
| 2026-05-04 19:22 | 50.80139 | -0.77359 | 12377 ft | 339 kts | 52° |
| 2026-05-04 19:22 | 50.81377 | -0.74292 | 11939 ft | 328 kts | 71° |
| 2026-05-04 19:23 | 50.81719 | -0.70792 | 11600 ft | 318 kts | 88° |
| 2026-05-04 19:23 | 50.81808 | -0.67362 | 11198 ft | 303 kts | 85° |
| 2026-05-04 19:23 | 50.82082 | -0.64143 | 10684 ft | 289 kts | 79° |
| 2026-05-04 19:23 | 50.82506 | -0.61094 | 10088 ft | 288 kts | 77° |
| 2026-05-04 19:24 | 50.82960 | -0.58019 | 9745 ft | 286 kts | 77° |
| 2026-05-04 19:24 | 50.83392 | -0.54958 | 9378 ft | 284 kts | 78° |
| 2026-05-04 19:24 | 50.83795 | -0.51906 | 9005 ft | 283 kts | 79° |
| 2026-05-04 19:24 | 50.84174 | -0.48874 | 8714 ft | 278 kts | 79° |
| 2026-05-04 19:25 | 50.84535 | -0.45882 | 8450 ft | 274 kts | 79° |
| 2026-05-04 19:25 | 50.84884 | -0.42911 | 8192 ft | 275 kts | 79° |
| 2026-05-04 19:25 | 50.85230 | -0.39917 | 7941 ft | 278 kts | 80° |
| 2026-05-04 19:25 | 50.85576 | -0.36895 | 7707 ft | 280 kts | 80° |
| 2026-05-04 19:26 | 50.85917 | -0.33905 | 7464 ft | 280 kts | 80° |
| 2026-05-04 19:26 | 50.86259 | -0.30885 | 7290 ft | 277 kts | 80° |
| 2026-05-04 19:26 | 50.86597 | -0.27911 | 7140 ft | 273 kts | 80° |
| 2026-05-04 19:26 | 50.86930 | -0.24966 | 7069 ft | 271 kts | 79° |
| 2026-05-04 19:27 | 50.87264 | -0.22010 | 7032 ft | 274 kts | 79° |
| 2026-05-04 19:27 | 50.87679 | -0.19062 | 6987 ft | 273 kts | 68° |
| 2026-05-04 19:27 | 50.88746 | -0.16593 | 7001 ft | 276 kts | 40° |
| 2026-05-04 19:27 | 50.90387 | -0.15233 | 6985 ft | 261 kts | 11° |
| 2026-05-04 19:28 | 50.92142 | -0.15319 | 6980 ft | 248 kts | 340° |
| 2026-05-04 19:28 | 50.93138 | -0.16135 | 6983 ft | 243 kts | 320° |
| 2026-05-04 19:28 | 50.94368 | -0.19016 | 6864 ft | 240 kts | 291° |
| 2026-05-04 19:28 | 50.94950 | -0.21521 | 6486 ft | 244 kts | 289° |
| 2026-05-04 19:29 | 50.95520 | -0.24060 | 6093 ft | 244 kts | 290° |
| 2026-05-04 19:29 | 50.95915 | -0.25761 | 5810 ft | 243 kts | 290° |
| 2026-05-04 19:29 | 50.96681 | -0.29062 | 5260 ft | 238 kts | 291° |
| 2026-05-04 19:29 | 50.97063 | -0.30723 | 4981 ft | 236 kts | 291° |
| 2026-05-04 19:30 | 50.97619 | -0.33160 | 4583 ft | 234 kts | 291° |
| 2026-05-04 19:30 | 50.98164 | -0.35558 | 4172 ft | 234 kts | 291° |
| 2026-05-04 19:30 | 50.98713 | -0.37983 | 3790 ft | 232 kts | 291° |
| 2026-05-04 19:30 | 50.99245 | -0.40359 | 3579 ft | 224 kts | 291° |
| 2026-05-04 19:31 | 50.99773 | -0.42715 | 3470 ft | 230 kts | 291° |
| 2026-05-04 19:31 | 51.00317 | -0.45150 | 3377 ft | 236 kts | 291° |
| 2026-05-04 19:31 | 51.00863 | -0.47614 | 3255 ft | 236 kts | 291° |
| 2026-05-04 19:31 | 51.01614 | -0.49878 | 3102 ft | 231 kts | 317° |
| 2026-05-04 19:32 | 51.02964 | -0.51113 | 3054 ft | 224 kts | 349° |
| 2026-05-04 19:32 | 51.04496 | -0.51509 | 3030 ft | 222 kts | 354° |
| 2026-05-04 19:32 | 51.06033 | -0.51842 | 3017 ft | 222 kts | 356° |
| 2026-05-04 19:32 | 51.07539 | -0.51713 | 3005 ft | 214 kts | 21° |
| 2026-05-04 19:33 | 51.08755 | -0.50519 | 3018 ft | 201 kts | 41° |
| 2026-05-04 19:33 | 51.09791 | -0.49045 | 3076 ft | 200 kts | 43° |
| 2026-05-04 19:33 | 51.10698 | -0.47402 | 3013 ft | 201 kts | 62° |
| 2026-05-04 19:33 | 51.11120 | -0.45322 | 3022 ft | 193 kts | 77° |
| 2026-05-04 19:34 | 51.11397 | -0.43292 | 3030 ft | 182 kts | 75° |
| 2026-05-04 19:34 | 51.11696 | -0.41324 | 2865 ft | 184 kts | 75° |
| 2026-05-04 19:34 | 51.11976 | -0.39390 | 2632 ft | 174 kts | 76° |
| 2026-05-04 19:34 | 51.12234 | -0.37554 | 2400 ft | 166 kts | 76° |
| 2026-05-04 19:35 | 51.12476 | -0.35819 | 2172 ft | 155 kts | 76° |
| 2026-05-04 19:35 | 51.12711 | -0.34145 | 2006 ft | 158 kts | 76° |
| 2026-05-04 19:35 | 51.12947 | -0.32450 | 1779 ft | 153 kts | 76° |
| 2026-05-04 19:35 | 51.13169 | -0.30854 | 1572 ft | 142 kts | 76° |
| 2026-05-04 19:36 | 51.13376 | -0.29371 | 1379 ft | 138 kts | 77° |
| 2026-05-04 19:36 | 51.13581 | -0.27880 | 1181 ft | 139 kts | 76° |
| 2026-05-04 19:36 | 51.13790 | -0.26371 | 1028 ft | 139 kts | 76° |
| 2026-05-04 19:36 | 51.14005 | -0.24854 | 814 ft | 140 kts | 76° |
| 2026-05-04 19:37 | 51.14214 | -0.23326 | 629 ft | 142 kts | 76° |
| 2026-05-04 19:37 | 51.14431 | -0.21784 | 405 ft | 141 kts | 77° |
| 2026-05-04 19:37 | 51.14643 | -0.20267 | 234 ft | 140 kts | 77° |
| 2026-05-04 19:37 | 51.14837 | -0.18874 | 217 ft | 110 kts | 78° |
| 2026-05-04 19:38 | 51.14959 | -0.17989 | 217 ft | 50 kts | 78° |
| 2026-05-04 19:38 | 51.15012 | -0.17611 | 219 ft | 32 kts | 76° |
| 2026-05-04 19:38 | 51.15080 | -0.17310 | 223 ft | 18 kts | 57° |
| 2026-05-04 19:38 | 51.15126 | -0.17213 | 220 ft | 8 kts | 31° |
| 2026-05-04 19:39 | 51.15179 | -0.17239 | 221 ft | 6 kts | 323° |
| 2026-05-04 19:39 | 51.15184 | -0.17245 | 221 ft | 1 kts | 321° |
| 2026-05-04 19:39 | 51.15192 | -0.17255 | 219 ft | 2 kts | 322° |
| 2026-05-04 19:39 | 51.15203 | -0.17268 | 219 ft | 0 kts | 323° |
| 2026-05-04 19:41 | 51.15203 | -0.17269 | 219 ft | 0 kts | 323° |
| 2026-05-04 19:41 | 51.15206 | -0.17273 | 218 ft | 1 kts | 323° |
| 2026-05-04 19:41 | 51.15220 | -0.17289 | 219 ft | 5 kts | 323° |
| 2026-05-04 19:42 | 51.15269 | -0.17338 | 219 ft | 11 kts | 334° |
| 2026-05-04 19:42 | 51.15345 | -0.17371 | 217 ft | 11 kts | 348° |
| 2026-05-04 19:42 | 51.15423 | -0.17398 | 215 ft | 11 kts | 347° |
| 2026-05-04 19:42 | 51.15500 | -0.17425 | 214 ft | 11 kts | 347° |
| 2026-05-04 19:43 | 51.15575 | -0.17429 | 210 ft | 11 kts | 30° |
| 2026-05-04 19:43 | 51.15603 | -0.17319 | 217 ft | 11 kts | 77° |
| 2026-05-04 19:43 | 51.15620 | -0.17200 | 219 ft | 11 kts | 77° |
| 2026-05-04 19:43 | 51.15638 | -0.17082 | 214 ft | 11 kts | 77° |
| 2026-05-04 19:44 | 51.15655 | -0.16963 | 215 ft | 11 kts | 77° |
| 2026-05-04 19:44 | 51.15670 | -0.16848 | 212 ft | 7 kts | 78° |
| 2026-05-04 19:44 | 51.15658 | -0.16806 | 220 ft | 4 kts | 139° |
| 2026-05-04 19:44 | 51.15627 | -0.16792 | 218 ft | 5 kts | 167° |
| 2026-05-04 19:45 | 51.15604 | -0.16783 | 221 ft | 2 kts | 167° |
| 2026-05-04 19:45 | 51.15603 | -0.16783 | 221 ft | 0 kts | 167° |